sensor_id;sensor_type;location;lat;lon;timestamp;P1;durP1;ratioP1;P2;durP2;ratioP2
10311;SDS011;5201;48.776;9.128;2023-02-13T00:00:30;20.10;;;10.57;;
10311;SDS011;5201;48.776;9.128;2023-02-13T00:02:57;23.23;;;11.60;;
10311;SDS011;5201;48.776;9.128;2023-02-13T00:05:22;19.77;;;10.23;;
10311;SDS011;5201;48.776;9.128;2023-02-13T00:07:48;19.43;;;9.50;;
10311;SDS011;5201;48.776;9.128;2023-02-13T00:10:13;20.53;;;10.57;;
10311;SDS011;5201;48.776;9.128;2023-02-13T00:12:39;22.07;;;10.07;;
10311;SDS011;5201;48.776;9.128;2023-02-13T00:15:05;19.83;;;10.33;;
10311;SDS011;5201;48.776;9.128;2023-02-13T00:17:31;26.83;;;11.03;;
10311;SDS011;5201;48.776;9.128;2023-02-13T00:19:57;22.03;;;10.20;;
10311;SDS011;5201;48.776;9.128;2023-02-13T00:22:23;25.07;;;11.53;;
10311;SDS011;5201;48.776;9.128;2023-02-13T00:24:48;23.63;;;11.57;;
10311;SDS011;5201;48.776;9.128;2023-02-13T00:27:14;24.40;;;11.63;;
10311;SDS011;5201;48.776;9.128;2023-02-13T00:29:40;21.80;;;11.27;;
10311;SDS011;5201;48.776;9.128;2023-02-13T00:32:05;20.40;;;10.37;;
10311;SDS011;5201;48.776;9.128;2023-02-13T00:34:31;23.47;;;11.03;;
10311;SDS011;5201;48.776;9.128;2023-02-13T00:36:57;21.07;;;10.93;;
10311;SDS011;5201;48.776;9.128;2023-02-13T00:39:22;27.67;;;11.93;;
10311;SDS011;5201;48.776;9.128;2023-02-13T00:41:48;23.17;;;10.80;;
10311;SDS011;5201;48.776;9.128;2023-02-13T00:44:13;26.07;;;11.63;;
10311;SDS011;5201;48.776;9.128;2023-02-13T00:46:39;26.97;;;11.97;;
10311;SDS011;5201;48.776;9.128;2023-02-13T00:49:05;24.50;;;12.73;;
10311;SDS011;5201;48.776;9.128;2023-02-13T00:51:30;25.53;;;11.63;;
10311;SDS011;5201;48.776;9.128;2023-02-13T00:53:56;27.73;;;12.17;;
10311;SDS011;5201;48.776;9.128;2023-02-13T00:56:22;23.20;;;11.07;;
10311;SDS011;5201;48.776;9.128;2023-02-13T00:58:48;27.13;;;13.27;;
10311;SDS011;5201;48.776;9.128;2023-02-13T01:01:13;22.40;;;10.30;;
10311;SDS011;5201;48.776;9.128;2023-02-13T01:03:39;28.63;;;11.90;;
10311;SDS011;5201;48.776;9.128;2023-02-13T01:06:05;20.77;;;11.03;;
10311;SDS011;5201;48.776;9.128;2023-02-13T01:08:31;25.13;;;11.33;;
10311;SDS011;5201;48.776;9.128;2023-02-13T01:10:57;22.20;;;10.47;;
10311;SDS011;5201;48.776;9.128;2023-02-13T01:13:23;24.67;;;11.47;;
10311;SDS011;5201;48.776;9.128;2023-02-13T01:15:49;28.03;;;11.13;;
10311;SDS011;5201;48.776;9.128;2023-02-13T01:18:16;26.47;;;12.03;;
10311;SDS011;5201;48.776;9.128;2023-02-13T01:20:43;25.70;;;11.60;;
10311;SDS011;5201;48.776;9.128;2023-02-13T01:23:09;24.47;;;11.00;;
10311;SDS011;5201;48.776;9.128;2023-02-13T01:25:42;29.60;;;12.33;;
10311;SDS011;5201;48.776;9.128;2023-02-13T01:28:08;28.70;;;11.63;;
10311;SDS011;5201;48.776;9.128;2023-02-13T01:30:34;26.67;;;11.47;;
10311;SDS011;5201;48.776;9.128;2023-02-13T01:32:59;28.37;;;12.40;;
10311;SDS011;5201;48.776;9.128;2023-02-13T01:35:25;21.83;;;9.90;;
10311;SDS011;5201;48.776;9.128;2023-02-13T01:37:51;21.47;;;9.47;;
10311;SDS011;5201;48.776;9.128;2023-02-13T01:40:16;24.07;;;10.13;;
10311;SDS011;5201;48.776;9.128;2023-02-13T01:42:42;19.43;;;9.73;;
10311;SDS011;5201;48.776;9.128;2023-02-13T01:45:18;27.03;;;11.33;;
10311;SDS011;5201;48.776;9.128;2023-02-13T01:47:58;27.17;;;11.10;;
10311;SDS011;5201;48.776;9.128;2023-02-13T01:52:59;25.87;;;11.43;;
10311;SDS011;5201;48.776;9.128;2023-02-13T01:55:30;24.90;;;10.80;;
10311;SDS011;5201;48.776;9.128;2023-02-13T01:58:02;20.97;;;10.73;;
10311;SDS011;5201;48.776;9.128;2023-02-13T02:00:32;20.23;;;9.83;;
10311;SDS011;5201;48.776;9.128;2023-02-13T02:03:01;27.50;;;10.83;;
10311;SDS011;5201;48.776;9.128;2023-02-13T02:05:50;25.73;;;10.87;;
10311;SDS011;5201;48.776;9.128;2023-02-13T02:08:19;23.60;;;10.27;;
10311;SDS011;5201;48.776;9.128;2023-02-13T02:10:45;27.60;;;11.50;;
10311;SDS011;5201;48.776;9.128;2023-02-13T02:13:12;26.90;;;12.20;;
10311;SDS011;5201;48.776;9.128;2023-02-13T02:15:42;23.67;;;11.23;;
10311;SDS011;5201;48.776;9.128;2023-02-13T02:18:11;25.00;;;12.30;;
10311;SDS011;5201;48.776;9.128;2023-02-13T02:29:17;28.93;;;11.50;;
10311;SDS011;5201;48.776;9.128;2023-02-13T02:38:40;25.87;;;11.53;;
10311;SDS011;5201;48.776;9.128;2023-02-13T02:46:54;28.87;;;13.23;;
10311;SDS011;5201;48.776;9.128;2023-02-13T02:52:56;27.93;;;12.43;;
10311;SDS011;5201;48.776;9.128;2023-02-13T02:55:35;29.27;;;12.40;;
10311;SDS011;5201;48.776;9.128;2023-02-13T02:58:24;27.77;;;12.77;;
10311;SDS011;5201;48.776;9.128;2023-02-13T03:01:20;25.90;;;12.70;;
10311;SDS011;5201;48.776;9.128;2023-02-13T03:04:11;34.83;;;13.57;;
10311;SDS011;5201;48.776;9.128;2023-02-13T03:07:18;26.83;;;12.60;;
10311;SDS011;5201;48.776;9.128;2023-02-13T03:09:56;30.20;;;12.90;;
10311;SDS011;5201;48.776;9.128;2023-02-13T03:12:50;34.70;;;14.47;;
10311;SDS011;5201;48.776;9.128;2023-02-13T03:15:41;30.40;;;12.73;;
10311;SDS011;5201;48.776;9.128;2023-02-13T03:18:28;25.63;;;12.13;;
10311;SDS011;5201;48.776;9.128;2023-02-13T03:21:17;29.97;;;13.17;;
10311;SDS011;5201;48.776;9.128;2023-02-13T03:24:12;28.33;;;13.20;;
10311;SDS011;5201;48.776;9.128;2023-02-13T03:29:45;32.00;;;13.03;;
10311;SDS011;5201;48.776;9.128;2023-02-13T03:35:11;35.27;;;14.07;;
10311;SDS011;5201;48.776;9.128;2023-02-13T03:38:01;29.10;;;13.47;;
10311;SDS011;5201;48.776;9.128;2023-02-13T03:43:25;34.23;;;14.90;;
10311;SDS011;5201;48.776;9.128;2023-02-13T03:45:53;30.07;;;13.40;;
10311;SDS011;5201;48.776;9.128;2023-02-13T03:48:31;32.77;;;13.67;;
10311;SDS011;5201;48.776;9.128;2023-02-13T03:51:22;28.10;;;12.73;;
10311;SDS011;5201;48.776;9.128;2023-02-13T03:53:54;33.23;;;14.03;;
10311;SDS011;5201;48.776;9.128;2023-02-13T03:56:23;34.97;;;14.13;;
10311;SDS011;5201;48.776;9.128;2023-02-13T03:59:10;32.53;;;14.40;;
10311;SDS011;5201;48.776;9.128;2023-02-13T04:01:52;33.47;;;14.07;;
10311;SDS011;5201;48.776;9.128;2023-02-13T04:04:36;37.57;;;15.87;;
10311;SDS011;5201;48.776;9.128;2023-02-13T04:07:15;29.30;;;14.17;;
10311;SDS011;5201;48.776;9.128;2023-02-13T04:09:59;25.23;;;11.53;;
10311;SDS011;5201;48.776;9.128;2023-02-13T04:12:36;25.90;;;11.80;;
10311;SDS011;5201;48.776;9.128;2023-02-13T04:15:29;27.30;;;12.57;;
10311;SDS011;5201;48.776;9.128;2023-02-13T04:18:22;27.50;;;12.90;;
10311;SDS011;5201;48.776;9.128;2023-02-13T04:20:53;29.17;;;12.47;;
10311;SDS011;5201;48.776;9.128;2023-02-13T04:23:19;33.27;;;14.50;;
10311;SDS011;5201;48.776;9.128;2023-02-13T04:25:46;30.47;;;13.37;;
10311;SDS011;5201;48.776;9.128;2023-02-13T04:28:14;34.83;;;15.20;;
10311;SDS011;5201;48.776;9.128;2023-02-13T04:30:41;36.90;;;14.97;;
10311;SDS011;5201;48.776;9.128;2023-02-13T04:33:07;33.70;;;14.90;;
10311;SDS011;5201;48.776;9.128;2023-02-13T04:35:32;38.17;;;15.13;;
10311;SDS011;5201;48.776;9.128;2023-02-13T04:37:59;31.17;;;13.37;;
10311;SDS011;5201;48.776;9.128;2023-02-13T04:40:25;42.90;;;14.30;;
10311;SDS011;5201;48.776;9.128;2023-02-13T04:42:51;32.67;;;14.40;;
10311;SDS011;5201;48.776;9.128;2023-02-13T04:45:16;38.33;;;14.83;;
10311;SDS011;5201;48.776;9.128;2023-02-13T04:47:42;39.90;;;16.10;;
10311;SDS011;5201;48.776;9.128;2023-02-13T04:50:13;35.47;;;14.80;;
10311;SDS011;5201;48.776;9.128;2023-02-13T04:52:39;36.70;;;14.73;;
10311;SDS011;5201;48.776;9.128;2023-02-13T04:55:04;31.97;;;13.47;;
10311;SDS011;5201;48.776;9.128;2023-02-13T04:57:30;30.70;;;14.37;;
10311;SDS011;5201;48.776;9.128;2023-02-13T04:59:55;27.77;;;13.30;;
10311;SDS011;5201;48.776;9.128;2023-02-13T05:02:21;29.63;;;14.30;;
10311;SDS011;5201;48.776;9.128;2023-02-13T05:04:47;30.40;;;14.40;;
10311;SDS011;5201;48.776;9.128;2023-02-13T05:07:12;40.07;;;15.30;;
10311;SDS011;5201;48.776;9.128;2023-02-13T05:09:38;38.53;;;15.70;;
10311;SDS011;5201;48.776;9.128;2023-02-13T05:12:03;38.47;;;15.20;;
10311;SDS011;5201;48.776;9.128;2023-02-13T05:14:29;38.90;;;15.57;;
10311;SDS011;5201;48.776;9.128;2023-02-13T05:16:55;30.90;;;14.80;;
10311;SDS011;5201;48.776;9.128;2023-02-13T05:19:20;36.87;;;15.40;;
10311;SDS011;5201;48.776;9.128;2023-02-13T05:21:46;38.77;;;14.73;;
10311;SDS011;5201;48.776;9.128;2023-02-13T05:24:30;33.87;;;15.07;;
10311;SDS011;5201;48.776;9.128;2023-02-13T05:26:56;41.40;;;16.97;;
10311;SDS011;5201;48.776;9.128;2023-02-13T05:29:21;37.40;;;15.07;;
10311;SDS011;5201;48.776;9.128;2023-02-13T05:31:48;46.83;;;16.20;;
10311;SDS011;5201;48.776;9.128;2023-02-13T05:34:15;32.13;;;14.30;;
10311;SDS011;5201;48.776;9.128;2023-02-13T05:36:41;32.27;;;13.93;;
10311;SDS011;5201;48.776;9.128;2023-02-13T05:39:07;32.80;;;14.77;;
10311;SDS011;5201;48.776;9.128;2023-02-13T05:41:32;40.50;;;16.20;;
10311;SDS011;5201;48.776;9.128;2023-02-13T05:43:58;32.37;;;15.70;;
10311;SDS011;5201;48.776;9.128;2023-02-13T05:46:24;34.20;;;15.07;;
10311;SDS011;5201;48.776;9.128;2023-02-13T05:48:50;33.90;;;15.20;;
10311;SDS011;5201;48.776;9.128;2023-02-13T05:51:17;34.30;;;15.00;;
10311;SDS011;5201;48.776;9.128;2023-02-13T05:53:43;30.67;;;14.20;;
10311;SDS011;5201;48.776;9.128;2023-02-13T05:56:08;36.30;;;15.77;;
10311;SDS011;5201;48.776;9.128;2023-02-13T05:58:34;33.40;;;14.53;;
10311;SDS011;5201;48.776;9.128;2023-02-13T06:01:00;32.00;;;14.70;;
10311;SDS011;5201;48.776;9.128;2023-02-13T06:03:26;33.53;;;13.80;;
10311;SDS011;5201;48.776;9.128;2023-02-13T06:05:53;42.73;;;17.90;;
10311;SDS011;5201;48.776;9.128;2023-02-13T06:08:19;36.87;;;15.70;;
10311;SDS011;5201;48.776;9.128;2023-02-13T06:10:46;37.60;;;16.33;;
10311;SDS011;5201;48.776;9.128;2023-02-13T06:13:12;37.43;;;16.10;;
10311;SDS011;5201;48.776;9.128;2023-02-13T06:15:38;35.10;;;15.20;;
10311;SDS011;5201;48.776;9.128;2023-02-13T06:18:04;37.13;;;15.43;;
10311;SDS011;5201;48.776;9.128;2023-02-13T06:20:30;33.10;;;15.97;;
10311;SDS011;5201;48.776;9.128;2023-02-13T06:22:55;33.27;;;15.63;;
10311;SDS011;5201;48.776;9.128;2023-02-13T06:25:21;35.40;;;16.30;;
10311;SDS011;5201;48.776;9.128;2023-02-13T06:27:47;35.30;;;15.83;;
10311;SDS011;5201;48.776;9.128;2023-02-13T06:30:12;34.53;;;16.50;;
10311;SDS011;5201;48.776;9.128;2023-02-13T06:32:38;35.73;;;16.13;;
10311;SDS011;5201;48.776;9.128;2023-02-13T06:35:04;42.00;;;16.73;;
10311;SDS011;5201;48.776;9.128;2023-02-13T06:37:30;39.37;;;16.77;;
10311;SDS011;5201;48.776;9.128;2023-02-13T06:39:56;35.80;;;15.30;;
10311;SDS011;5201;48.776;9.128;2023-02-13T06:42:22;33.67;;;15.77;;
10311;SDS011;5201;48.776;9.128;2023-02-13T06:44:50;38.53;;;16.07;;
10311;SDS011;5201;48.776;9.128;2023-02-13T06:47:15;37.70;;;15.80;;
10311;SDS011;5201;48.776;9.128;2023-02-13T06:49:41;41.07;;;16.37;;
10311;SDS011;5201;48.776;9.128;2023-02-13T06:52:07;29.03;;;14.90;;
10311;SDS011;5201;48.776;9.128;2023-02-13T06:54:32;35.37;;;16.03;;
10311;SDS011;5201;48.776;9.128;2023-02-13T06:56:58;32.83;;;15.77;;
10311;SDS011;5201;48.776;9.128;2023-02-13T06:59:24;39.07;;;16.60;;
10311;SDS011;5201;48.776;9.128;2023-02-13T07:01:49;39.90;;;16.27;;
10311;SDS011;5201;48.776;9.128;2023-02-13T07:04:15;38.70;;;16.40;;
10311;SDS011;5201;48.776;9.128;2023-02-13T07:06:40;31.93;;;16.10;;
10311;SDS011;5201;48.776;9.128;2023-02-13T07:09:06;33.93;;;16.73;;
10311;SDS011;5201;48.776;9.128;2023-02-13T07:11:32;38.73;;;17.20;;
10311;SDS011;5201;48.776;9.128;2023-02-13T07:13:57;44.23;;;17.70;;
10311;SDS011;5201;48.776;9.128;2023-02-13T07:16:23;39.47;;;18.43;;
10311;SDS011;5201;48.776;9.128;2023-02-13T07:18:48;30.90;;;15.07;;
10311;SDS011;5201;48.776;9.128;2023-02-13T07:21:14;30.60;;;15.60;;
10311;SDS011;5201;48.776;9.128;2023-02-13T07:23:39;29.87;;;13.33;;
10311;SDS011;5201;48.776;9.128;2023-02-13T07:26:05;26.53;;;13.00;;
10311;SDS011;5201;48.776;9.128;2023-02-13T07:28:31;21.60;;;12.50;;
10311;SDS011;5201;48.776;9.128;2023-02-13T07:30:57;26.73;;;11.93;;
10311;SDS011;5201;48.776;9.128;2023-02-13T07:33:27;23.47;;;11.70;;
10311;SDS011;5201;48.776;9.128;2023-02-13T07:35:52;27.33;;;13.40;;
10311;SDS011;5201;48.776;9.128;2023-02-13T07:38:18;24.90;;;12.93;;
10311;SDS011;5201;48.776;9.128;2023-02-13T07:40:44;23.00;;;11.43;;
10311;SDS011;5201;48.776;9.128;2023-02-13T07:43:09;26.43;;;10.63;;
10311;SDS011;5201;48.776;9.128;2023-02-13T07:45:36;21.70;;;12.13;;
10311;SDS011;5201;48.776;9.128;2023-02-13T07:48:01;28.37;;;13.37;;
10311;SDS011;5201;48.776;9.128;2023-02-13T07:50:27;22.43;;;12.40;;
10311;SDS011;5201;48.776;9.128;2023-02-13T07:52:57;25.33;;;12.43;;
10311;SDS011;5201;48.776;9.128;2023-02-13T07:55:24;20.87;;;11.47;;
10311;SDS011;5201;48.776;9.128;2023-02-13T07:57:51;16.30;;;9.63;;
10311;SDS011;5201;48.776;9.128;2023-02-13T08:00:17;17.60;;;9.83;;
10311;SDS011;5201;48.776;9.128;2023-02-13T08:02:43;15.53;;;9.60;;
10311;SDS011;5201;48.776;9.128;2023-02-13T08:05:10;20.17;;;10.27;;
10311;SDS011;5201;48.776;9.128;2023-02-13T08:07:35;22.50;;;10.27;;
10311;SDS011;5201;48.776;9.128;2023-02-13T08:10:02;19.23;;;9.67;;
10311;SDS011;5201;48.776;9.128;2023-02-13T08:12:47;17.93;;;9.80;;
10311;SDS011;5201;48.776;9.128;2023-02-13T08:15:13;13.90;;;7.97;;
10311;SDS011;5201;48.776;9.128;2023-02-13T08:17:39;17.37;;;9.70;;
10311;SDS011;5201;48.776;9.128;2023-02-13T08:20:05;13.63;;;8.47;;
10311;SDS011;5201;48.776;9.128;2023-02-13T08:22:33;18.53;;;8.80;;
10311;SDS011;5201;48.776;9.128;2023-02-13T08:24:59;13.10;;;8.00;;
10311;SDS011;5201;48.776;9.128;2023-02-13T08:27:24;12.37;;;7.67;;
10311;SDS011;5201;48.776;9.128;2023-02-13T08:29:50;13.43;;;7.83;;
10311;SDS011;5201;48.776;9.128;2023-02-13T08:32:16;14.60;;;7.50;;
10311;SDS011;5201;48.776;9.128;2023-02-13T08:34:42;14.03;;;7.93;;
10311;SDS011;5201;48.776;9.128;2023-02-13T08:37:07;15.27;;;7.63;;
10311;SDS011;5201;48.776;9.128;2023-02-13T08:39:33;14.00;;;8.23;;
10311;SDS011;5201;48.776;9.128;2023-02-13T08:41:58;15.23;;;8.10;;
10311;SDS011;5201;48.776;9.128;2023-02-13T08:44:24;15.70;;;7.60;;
10311;SDS011;5201;48.776;9.128;2023-02-13T08:46:50;15.93;;;7.00;;
10311;SDS011;5201;48.776;9.128;2023-02-13T08:49:15;13.23;;;7.13;;
10311;SDS011;5201;48.776;9.128;2023-02-13T08:51:41;12.50;;;7.40;;
10311;SDS011;5201;48.776;9.128;2023-02-13T08:54:07;11.50;;;6.83;;
10311;SDS011;5201;48.776;9.128;2023-02-13T08:56:33;14.37;;;6.67;;
10311;SDS011;5201;48.776;9.128;2023-02-13T08:58:59;12.23;;;6.83;;
10311;SDS011;5201;48.776;9.128;2023-02-13T09:01:24;11.23;;;7.07;;
10311;SDS011;5201;48.776;9.128;2023-02-13T09:03:50;11.97;;;7.07;;
10311;SDS011;5201;48.776;9.128;2023-02-13T09:06:16;11.83;;;6.93;;
10311;SDS011;5201;48.776;9.128;2023-02-13T09:08:41;11.13;;;7.03;;
10311;SDS011;5201;48.776;9.128;2023-02-13T09:11:08;11.87;;;7.27;;
10311;SDS011;5201;48.776;9.128;2023-02-13T09:13:34;13.07;;;7.57;;
10311;SDS011;5201;48.776;9.128;2023-02-13T09:16:02;14.43;;;8.03;;
10311;SDS011;5201;48.776;9.128;2023-02-13T09:18:29;10.43;;;7.47;;
10311;SDS011;5201;48.776;9.128;2023-02-13T09:20:58;11.27;;;6.40;;
10311;SDS011;5201;48.776;9.128;2023-02-13T09:23:29;14.40;;;7.73;;
10311;SDS011;5201;48.776;9.128;2023-02-13T09:25:59;12.17;;;6.87;;
10311;SDS011;5201;48.776;9.128;2023-02-13T09:28:28;10.83;;;7.13;;
10311;SDS011;5201;48.776;9.128;2023-02-13T09:30:54;9.87;;;6.83;;
10311;SDS011;5201;48.776;9.128;2023-02-13T09:33:20;11.97;;;6.83;;
10311;SDS011;5201;48.776;9.128;2023-02-13T09:35:45;9.37;;;6.80;;
10311;SDS011;5201;48.776;9.128;2023-02-13T09:38:11;11.80;;;7.40;;
10311;SDS011;5201;48.776;9.128;2023-02-13T09:40:47;11.90;;;7.00;;
10311;SDS011;5201;48.776;9.128;2023-02-13T09:45:54;10.07;;;6.60;;
10311;SDS011;5201;48.776;9.128;2023-02-13T09:48:28;14.57;;;6.83;;
10311;SDS011;5201;48.776;9.128;2023-02-13T09:50:59;14.93;;;7.27;;
10311;SDS011;5201;48.776;9.128;2023-02-13T09:53:26;10.17;;;6.43;;
10311;SDS011;5201;48.776;9.128;2023-02-13T10:01:15;12.87;;;6.97;;
10311;SDS011;5201;48.776;9.128;2023-02-13T10:03:47;8.83;;;6.07;;
10311;SDS011;5201;48.776;9.128;2023-02-13T10:08:56;9.00;;;5.77;;
10311;SDS011;5201;48.776;9.128;2023-02-13T10:16:54;7.40;;;4.73;;
10311;SDS011;5201;48.776;9.128;2023-02-13T10:19:36;8.57;;;5.03;;
10311;SDS011;5201;48.776;9.128;2023-02-13T10:22:29;5.93;;;4.53;;
10311;SDS011;5201;48.776;9.128;2023-02-13T10:25:11;8.43;;;5.40;;
10311;SDS011;5201;48.776;9.128;2023-02-13T10:27:44;7.17;;;5.37;;
10311;SDS011;5201;48.776;9.128;2023-02-13T10:30:14;13.47;;;6.27;;
10311;SDS011;5201;48.776;9.128;2023-02-13T10:35:54;8.10;;;5.07;;
10311;SDS011;5201;48.776;9.128;2023-02-13T10:38:30;9.83;;;5.10;;
10311;SDS011;5201;48.776;9.128;2023-02-13T10:51:52;10.93;;;5.47;;
10311;SDS011;5201;48.776;9.128;2023-02-13T11:03:29;7.43;;;5.37;;
10311;SDS011;5201;48.776;9.128;2023-02-13T11:05:55;9.13;;;5.73;;
10311;SDS011;5201;48.776;9.128;2023-02-13T11:08:34;11.03;;;6.57;;
10311;SDS011;5201;48.776;9.128;2023-02-13T11:19:25;7.57;;;5.27;;
10311;SDS011;5201;48.776;9.128;2023-02-13T11:21:57;11.77;;;5.87;;
10311;SDS011;5201;48.776;9.128;2023-02-13T11:24:26;7.37;;;5.10;;
10311;SDS011;5201;48.776;9.128;2023-02-13T11:26:57;9.10;;;5.83;;
10311;SDS011;5201;48.776;9.128;2023-02-13T11:29:33;8.43;;;5.20;;
10311;SDS011;5201;48.776;9.128;2023-02-13T11:34:38;12.23;;;5.37;;
10311;SDS011;5201;48.776;9.128;2023-02-13T11:37:14;10.20;;;5.87;;
10311;SDS011;5201;48.776;9.128;2023-02-13T11:39:44;6.37;;;4.83;;
10311;SDS011;5201;48.776;9.128;2023-02-13T11:42:25;7.73;;;5.73;;
10311;SDS011;5201;48.776;9.128;2023-02-13T11:44:56;8.30;;;5.03;;
10311;SDS011;5201;48.776;9.128;2023-02-13T11:47:37;8.03;;;5.23;;
10311;SDS011;5201;48.776;9.128;2023-02-13T11:52:56;9.10;;;4.53;;
10311;SDS011;5201;48.776;9.128;2023-02-13T11:55:31;7.40;;;4.87;;
10311;SDS011;5201;48.776;9.128;2023-02-13T12:00:39;8.70;;;5.57;;
10311;SDS011;5201;48.776;9.128;2023-02-13T12:03:25;6.40;;;4.70;;
10311;SDS011;5201;48.776;9.128;2023-02-13T12:06:00;7.20;;;4.70;;
10311;SDS011;5201;48.776;9.128;2023-02-13T12:08:29;11.53;;;5.07;;
10311;SDS011;5201;48.776;9.128;2023-02-13T12:10:58;7.03;;;4.33;;
10311;SDS011;5201;48.776;9.128;2023-02-13T12:16:01;5.97;;;4.47;;
10311;SDS011;5201;48.776;9.128;2023-02-13T12:18:31;5.60;;;4.00;;
10311;SDS011;5201;48.776;9.128;2023-02-13T12:29:09;6.83;;;4.50;;
10311;SDS011;5201;48.776;9.128;2023-02-13T12:34:28;6.30;;;4.47;;
10311;SDS011;5201;48.776;9.128;2023-02-13T12:40:30;10.33;;;5.10;;
10311;SDS011;5201;48.776;9.128;2023-02-13T12:45:48;6.93;;;4.60;;
10311;SDS011;5201;48.776;9.128;2023-02-13T12:48:48;5.57;;;4.30;;
10311;SDS011;5201;48.776;9.128;2023-02-13T12:51:29;6.17;;;4.60;;
10311;SDS011;5201;48.776;9.128;2023-02-13T12:54:35;7.70;;;4.27;;
10311;SDS011;5201;48.776;9.128;2023-02-13T13:14:14;9.80;;;5.03;;
10311;SDS011;5201;48.776;9.128;2023-02-13T13:16:55;9.87;;;5.27;;
10311;SDS011;5201;48.776;9.128;2023-02-13T13:19:44;9.23;;;5.73;;
10311;SDS011;5201;48.776;9.128;2023-02-13T13:22:31;12.07;;;6.20;;
10311;SDS011;5201;48.776;9.128;2023-02-13T13:27:52;8.10;;;5.63;;
10311;SDS011;5201;48.776;9.128;2023-02-13T13:30:24;10.90;;;6.43;;
10311;SDS011;5201;48.776;9.128;2023-02-13T13:32:59;11.47;;;5.80;;
10311;SDS011;5201;48.776;9.128;2023-02-13T13:35:28;12.57;;;6.47;;
10311;SDS011;5201;48.776;9.128;2023-02-13T13:37:57;8.43;;;5.63;;
10311;SDS011;5201;48.776;9.128;2023-02-13T13:40:37;11.40;;;6.27;;
10311;SDS011;5201;48.776;9.128;2023-02-13T13:51:24;12.00;;;6.40;;
10311;SDS011;5201;48.776;9.128;2023-02-13T13:56:24;12.67;;;6.60;;
10311;SDS011;5201;48.776;9.128;2023-02-13T13:58:50;7.83;;;6.00;;
10311;SDS011;5201;48.776;9.128;2023-02-13T14:01:23;12.83;;;7.60;;
10311;SDS011;5201;48.776;9.128;2023-02-13T14:03:53;12.23;;;7.47;;
10311;SDS011;5201;48.776;9.128;2023-02-13T14:06:24;11.90;;;6.53;;
10311;SDS011;5201;48.776;9.128;2023-02-13T14:08:57;12.43;;;5.93;;
10311;SDS011;5201;48.776;9.128;2023-02-13T14:11:30;11.03;;;6.50;;
10311;SDS011;5201;48.776;9.128;2023-02-13T14:13:59;11.47;;;6.70;;
10311;SDS011;5201;48.776;9.128;2023-02-13T14:16:39;9.90;;;5.27;;
10311;SDS011;5201;48.776;9.128;2023-02-13T14:19:05;11.87;;;6.17;;
10311;SDS011;5201;48.776;9.128;2023-02-13T14:24:53;8.20;;;5.17;;
10311;SDS011;5201;48.776;9.128;2023-02-13T14:27:24;14.30;;;7.37;;
10311;SDS011;5201;48.776;9.128;2023-02-13T14:29:56;8.00;;;5.50;;
10311;SDS011;5201;48.776;9.128;2023-02-13T14:35:05;9.30;;;6.17;;
10311;SDS011;5201;48.776;9.128;2023-02-13T14:37:54;8.70;;;5.70;;
10311;SDS011;5201;48.776;9.128;2023-02-13T14:43:02;8.87;;;6.37;;
10311;SDS011;5201;48.776;9.128;2023-02-13T14:45:45;10.43;;;6.30;;
10311;SDS011;5201;48.776;9.128;2023-02-13T14:48:15;10.37;;;5.40;;
10311;SDS011;5201;48.776;9.128;2023-02-13T14:50:45;9.60;;;5.03;;
10311;SDS011;5201;48.776;9.128;2023-02-13T14:53:15;7.00;;;4.77;;
10311;SDS011;5201;48.776;9.128;2023-02-13T14:55:47;11.57;;;5.87;;
10311;SDS011;5201;48.776;9.128;2023-02-13T14:58:30;11.50;;;5.83;;
10311;SDS011;5201;48.776;9.128;2023-02-13T15:06:06;7.77;;;4.97;;
10311;SDS011;5201;48.776;9.128;2023-02-13T15:08:49;8.77;;;5.20;;
10311;SDS011;5201;48.776;9.128;2023-02-13T15:11:36;8.83;;;5.10;;
10311;SDS011;5201;48.776;9.128;2023-02-13T15:19:36;7.23;;;4.73;;
10311;SDS011;5201;48.776;9.128;2023-02-13T15:22:14;9.80;;;4.80;;
10311;SDS011;5201;48.776;9.128;2023-02-13T15:24:49;6.47;;;4.43;;
10311;SDS011;5201;48.776;9.128;2023-02-13T15:27:19;8.87;;;5.13;;
10311;SDS011;5201;48.776;9.128;2023-02-13T15:29:58;7.63;;;5.10;;
10311;SDS011;5201;48.776;9.128;2023-02-13T15:32:27;9.10;;;4.90;;
10311;SDS011;5201;48.776;9.128;2023-02-13T15:34:54;9.33;;;5.83;;
10311;SDS011;5201;48.776;9.128;2023-02-13T15:37:21;8.87;;;5.53;;
10311;SDS011;5201;48.776;9.128;2023-02-13T15:39:48;6.97;;;4.80;;
10311;SDS011;5201;48.776;9.128;2023-02-13T15:42:13;7.97;;;5.00;;
10311;SDS011;5201;48.776;9.128;2023-02-13T15:44:39;9.83;;;5.87;;
10311;SDS011;5201;48.776;9.128;2023-02-13T15:47:14;7.80;;;5.43;;
10311;SDS011;5201;48.776;9.128;2023-02-13T15:49:46;10.47;;;6.33;;
10311;SDS011;5201;48.776;9.128;2023-02-13T15:52:17;13.37;;;6.33;;
10311;SDS011;5201;48.776;9.128;2023-02-13T15:55:03;11.93;;;5.77;;
10311;SDS011;5201;48.776;9.128;2023-02-13T15:57:28;11.77;;;6.20;;
10311;SDS011;5201;48.776;9.128;2023-02-13T15:59:55;8.27;;;5.87;;
10311;SDS011;5201;48.776;9.128;2023-02-13T16:02:44;13.50;;;5.60;;
10311;SDS011;5201;48.776;9.128;2023-02-13T16:05:11;16.77;;;6.03;;
10311;SDS011;5201;48.776;9.128;2023-02-13T16:07:46;11.93;;;6.10;;
10311;SDS011;5201;48.776;9.128;2023-02-13T16:10:24;6.73;;;5.23;;
10311;SDS011;5201;48.776;9.128;2023-02-13T16:12:52;13.10;;;5.40;;
10311;SDS011;5201;48.776;9.128;2023-02-13T16:15:20;10.73;;;6.20;;
10311;SDS011;5201;48.776;9.128;2023-02-13T16:17:46;10.80;;;6.53;;
10311;SDS011;5201;48.776;9.128;2023-02-13T16:25:20;12.67;;;6.30;;
10311;SDS011;5201;48.776;9.128;2023-02-13T16:28:00;10.60;;;6.30;;
10311;SDS011;5201;48.776;9.128;2023-02-13T16:30:33;9.77;;;6.50;;
10311;SDS011;5201;48.776;9.128;2023-02-13T16:33:34;9.90;;;6.53;;
10311;SDS011;5201;48.776;9.128;2023-02-13T16:35:54;14.63;;;6.13;;
10311;SDS011;5201;48.776;9.128;2023-02-13T16:40:57;8.57;;;5.57;;
10311;SDS011;5201;48.776;9.128;2023-02-13T16:43:53;10.53;;;5.57;;
10311;SDS011;5201;48.776;9.128;2023-02-13T16:49:13;9.53;;;5.77;;
10311;SDS011;5201;48.776;9.128;2023-02-13T16:51:43;9.93;;;5.20;;
10311;SDS011;5201;48.776;9.128;2023-02-13T16:56:46;11.97;;;6.27;;
10311;SDS011;5201;48.776;9.128;2023-02-13T17:02:12;10.47;;;5.77;;
10311;SDS011;5201;48.776;9.128;2023-02-13T17:04:44;10.70;;;5.73;;
10311;SDS011;5201;48.776;9.128;2023-02-13T17:07:22;7.90;;;4.93;;
10311;SDS011;5201;48.776;9.128;2023-02-13T17:10:03;10.27;;;5.90;;
10311;SDS011;5201;48.776;9.128;2023-02-13T17:12:33;10.23;;;5.90;;
10311;SDS011;5201;48.776;9.128;2023-02-13T17:15:02;8.53;;;5.10;;
10311;SDS011;5201;48.776;9.128;2023-02-13T17:17:29;10.73;;;5.50;;
10311;SDS011;5201;48.776;9.128;2023-02-13T17:19:56;8.97;;;6.10;;
10311;SDS011;5201;48.776;9.128;2023-02-13T17:22:32;10.87;;;5.73;;
10311;SDS011;5201;48.776;9.128;2023-02-13T17:25:00;10.50;;;6.37;;
10311;SDS011;5201;48.776;9.128;2023-02-13T17:27:29;10.87;;;5.73;;
10311;SDS011;5201;48.776;9.128;2023-02-13T17:29:54;11.73;;;6.50;;
10311;SDS011;5201;48.776;9.128;2023-02-13T17:32:21;11.63;;;6.23;;
10311;SDS011;5201;48.776;9.128;2023-02-13T17:34:48;9.97;;;6.47;;
10311;SDS011;5201;48.776;9.128;2023-02-13T17:37:21;10.60;;;6.67;;
10311;SDS011;5201;48.776;9.128;2023-02-13T17:39:51;10.80;;;6.23;;
10311;SDS011;5201;48.776;9.128;2023-02-13T17:42:19;10.20;;;6.10;;
10311;SDS011;5201;48.776;9.128;2023-02-13T17:44:50;9.67;;;6.40;;
10311;SDS011;5201;48.776;9.128;2023-02-13T17:47:16;8.50;;;5.80;;
10311;SDS011;5201;48.776;9.128;2023-02-13T17:49:42;12.87;;;6.80;;
10311;SDS011;5201;48.776;9.128;2023-02-13T17:52:09;12.80;;;7.37;;
10311;SDS011;5201;48.776;9.128;2023-02-13T17:54:38;11.83;;;6.90;;
10311;SDS011;5201;48.776;9.128;2023-02-13T17:57:04;11.17;;;7.63;;
10311;SDS011;5201;48.776;9.128;2023-02-13T17:59:30;13.50;;;7.57;;